sensor_id;sensor_type;location;lat;lon;timestamp;temperature;humidity
44111;DHT22;29774;52.664;5.074;2022-12-18T00:01:47;-3275.60;89.10
44111;DHT22;29774;52.664;5.074;2022-12-18T00:04:24;-3275.60;89.10
44111;DHT22;29774;52.664;5.074;2022-12-18T00:06:50;-3275.60;89.10
44111;DHT22;29774;52.664;5.074;2022-12-18T00:09:16;-3275.60;89.10
44111;DHT22;29774;52.664;5.074;2022-12-18T00:11:41;-3275.50;89.30
44111;DHT22;29774;52.664;5.074;2022-12-18T00:14:08;-3275.40;89.40
44111;DHT22;29774;52.664;5.074;2022-12-18T00:16:34;-3275.40;89.50
44111;DHT22;29774;52.664;5.074;2022-12-18T00:19:02;-3275.30;89.50
44111;DHT22;29774;52.664;5.074;2022-12-18T00:21:29;-3275.30;89.60
44111;DHT22;29774;52.664;5.074;2022-12-18T00:23:55;-3275.50;89.50
44111;DHT22;29774;52.664;5.074;2022-12-18T00:26:22;-3275.40;89.50
44111;DHT22;29774;52.664;5.074;2022-12-18T00:28:48;-3275.30;89.50
44111;DHT22;29774;52.664;5.074;2022-12-18T00:31:17;-3275.40;89.50
44111;DHT22;29774;52.664;5.074;2022-12-18T00:33:43;-3275.20;89.40
44111;DHT22;29774;52.664;5.074;2022-12-18T00:36:11;-3275.20;89.40
44111;DHT22;29774;52.664;5.074;2022-12-18T00:38:37;-3275.50;89.30
44111;DHT22;29774;52.664;5.074;2022-12-18T00:41:04;-3275.40;89.00
44111;DHT22;29774;52.664;5.074;2022-12-18T00:43:29;-3275.20;89.00
44111;DHT22;29774;52.664;5.074;2022-12-18T00:45:55;-3275.50;89.10
44111;DHT22;29774;52.664;5.074;2022-12-18T00:48:21;-3275.40;89.00
44111;DHT22;29774;52.664;5.074;2022-12-18T00:50:50;-3275.30;89.20
44111;DHT22;29774;52.664;5.074;2022-12-18T00:53:16;-3275.40;89.10
44111;DHT22;29774;52.664;5.074;2022-12-18T00:55:42;-3275.20;88.90
44111;DHT22;29774;52.664;5.074;2022-12-18T00:58:09;-3275.10;89.00
44111;DHT22;29774;52.664;5.074;2022-12-18T01:00:35;-3275.30;89.40
44111;DHT22;29774;52.664;5.074;2022-12-18T01:03:01;-3275.30;89.30
44111;DHT22;29774;52.664;5.074;2022-12-18T01:05:27;-3275.50;89.10
44111;DHT22;29774;52.664;5.074;2022-12-18T01:07:52;-3275.70;88.80
44111;DHT22;29774;52.664;5.074;2022-12-18T01:10:18;-3275.60;88.60
44111;DHT22;29774;52.664;5.074;2022-12-18T01:12:44;-3275.90;88.40
44111;DHT22;29774;52.664;5.074;2022-12-18T01:15:12;-3275.60;88.10
44111;DHT22;29774;52.664;5.074;2022-12-18T01:17:37;-3275.50;88.30
44111;DHT22;29774;52.664;5.074;2022-12-18T01:20:03;-3275.40;88.60
44111;DHT22;29774;52.664;5.074;2022-12-18T01:22:29;-3275.30;88.90
44111;DHT22;29774;52.664;5.074;2022-12-18T01:24:55;-3275.30;89.10
44111;DHT22;29774;52.664;5.074;2022-12-18T01:27:20;-3275.20;89.20
44111;DHT22;29774;52.664;5.074;2022-12-18T01:29:46;-3275.10;89.50
44111;DHT22;29774;52.664;5.074;2022-12-18T01:32:11;-3275.10;89.70
44111;DHT22;29774;52.664;5.074;2022-12-18T01:34:37;-3275.10;89.80
44111;DHT22;29774;52.664;5.074;2022-12-18T01:37:04;-3275.10;89.90
44111;DHT22;29774;52.664;5.074;2022-12-18T01:39:30;-3275.10;90.00
44111;DHT22;29774;52.664;5.074;2022-12-18T01:41:55;-3275.00;90.10
44111;DHT22;29774;52.664;5.074;2022-12-18T01:49:56;-3275.10;90.30
44111;DHT22;29774;52.664;5.074;2022-12-18T01:52:24;-3275.10;90.20
44111;DHT22;29774;52.664;5.074;2022-12-18T01:54:50;-3275.10;90.10
44111;DHT22;29774;52.664;5.074;2022-12-18T01:57:17;-3275.20;90.10
44111;DHT22;29774;52.664;5.074;2022-12-18T01:59:45;-3275.20;90.10
44111;DHT22;29774;52.664;5.074;2022-12-18T02:02:12;-3275.00;90.00
44111;DHT22;29774;52.664;5.074;2022-12-18T02:04:40;-3275.00;90.00
44111;DHT22;29774;52.664;5.074;2022-12-18T02:12:55;-3274.90;89.90
44111;DHT22;29774;52.664;5.074;2022-12-18T02:17:55;-3275.00;89.80
44111;DHT22;29774;52.664;5.074;2022-12-18T02:20:39;-3275.20;89.50
44111;DHT22;29774;52.664;5.074;2022-12-18T02:23:18;-3275.10;89.40
44111;DHT22;29774;52.664;5.074;2022-12-18T02:26:06;-3275.10;89.20
44111;DHT22;29774;52.664;5.074;2022-12-18T02:28:41;-3275.00;89.20
44111;DHT22;29774;52.664;5.074;2022-12-18T02:31:11;-3274.90;89.30
44111;DHT22;29774;52.664;5.074;2022-12-18T02:33:40;-3274.90;89.40
44111;DHT22;29774;52.664;5.074;2022-12-18T02:36:08;-3274.80;89.50
44111;DHT22;29774;52.664;5.074;2022-12-18T02:38:35;-3274.80;89.60
44111;DHT22;29774;52.664;5.074;2022-12-18T02:41:02;-3274.80;89.60
44111;DHT22;29774;52.664;5.074;2022-12-18T02:43:29;-3274.80;89.60
44111;DHT22;29774;52.664;5.074;2022-12-18T02:45:59;-3274.70;89.70
44111;DHT22;29774;52.664;5.074;2022-12-18T02:48:30;-3274.70;89.80
44111;DHT22;29774;52.664;5.074;2022-12-18T02:54:33;-3274.60;89.90
44111;DHT22;29774;52.664;5.074;2022-12-18T02:57:37;-3274.70;90.10
44111;DHT22;29774;52.664;5.074;2022-12-18T03:00:06;-3274.70;90.20
44111;DHT22;29774;52.664;5.074;2022-12-18T03:02:41;-3274.90;90.20
44111;DHT22;29774;52.664;5.074;2022-12-18T03:05:19;-3274.90;90.00
44111;DHT22;29774;52.664;5.074;2022-12-18T03:07:56;-3274.90;90.10
44111;DHT22;29774;52.664;5.074;2022-12-18T03:10:29;-3274.90;90.20
44111;DHT22;29774;52.664;5.074;2022-12-18T03:13:02;-3274.80;90.20
44111;DHT22;29774;52.664;5.074;2022-12-18T03:15:34;-3274.90;90.20
44111;DHT22;29774;52.664;5.074;2022-12-18T03:18:08;-3275.00;90.30
44111;DHT22;29774;52.664;5.074;2022-12-18T03:20:37;-3275.10;90.20
44111;DHT22;29774;52.664;5.074;2022-12-18T03:23:11;-3275.10;90.10
44111;DHT22;29774;52.664;5.074;2022-12-18T03:25:40;-3275.00;90.10
44111;DHT22;29774;52.664;5.074;2022-12-18T03:28:09;-3274.90;90.10
44111;DHT22;29774;52.664;5.074;2022-12-18T03:30:38;-3274.90;90.20
44111;DHT22;29774;52.664;5.074;2022-12-18T03:33:29;-3275.00;90.30
44111;DHT22;29774;52.664;5.074;2022-12-18T03:35:57;-3275.20;90.20
44111;DHT22;29774;52.664;5.074;2022-12-18T03:38:22;-3275.00;90.30
44111;DHT22;29774;52.664;5.074;2022-12-18T03:43:48;-3274.90;90.40
44111;DHT22;29774;52.664;5.074;2022-12-18T03:46:42;-3274.80;90.50
44111;DHT22;29774;52.664;5.074;2022-12-18T03:52:25;-3274.80;90.70
44111;DHT22;29774;52.664;5.074;2022-12-18T03:54:52;-3274.80;90.50
44111;DHT22;29774;52.664;5.074;2022-12-18T03:57:23;-3274.70;90.30
44111;DHT22;29774;52.664;5.074;2022-12-18T03:59:54;-3274.80;90.20
44111;DHT22;29774;52.664;5.074;2022-12-18T04:02:22;-3274.90;90.00
44111;DHT22;29774;52.664;5.074;2022-12-18T04:04:52;-3274.80;89.90
44111;DHT22;29774;52.664;5.074;2022-12-18T04:07:20;-3274.70;89.80
44111;DHT22;29774;52.664;5.074;2022-12-18T04:09:46;-3274.80;89.70
44111;DHT22;29774;52.664;5.074;2022-12-18T04:12:13;-3274.70;89.70
44111;DHT22;29774;52.664;5.074;2022-12-18T04:14:39;-3274.70;89.80
44111;DHT22;29774;52.664;5.074;2022-12-18T04:17:05;-3274.60;89.90
44111;DHT22;29774;52.664;5.074;2022-12-18T04:19:30;-3274.60;90.10
44111;DHT22;29774;52.664;5.074;2022-12-18T04:21:56;-3274.50;90.20
44111;DHT22;29774;52.664;5.074;2022-12-18T04:24:21;-3274.50;90.50
44111;DHT22;29774;52.664;5.074;2022-12-18T04:26:47;-3274.50;90.60
44111;DHT22;29774;52.664;5.074;2022-12-18T04:29:13;-3274.50;90.80
44111;DHT22;29774;52.664;5.074;2022-12-18T04:31:38;-3274.60;90.80
44111;DHT22;29774;52.664;5.074;2022-12-18T04:34:04;-3274.50;90.90
44111;DHT22;29774;52.664;5.074;2022-12-18T04:36:30;-3274.40;90.80
44111;DHT22;29774;52.664;5.074;2022-12-18T04:38:56;-3274.40;90.80
44111;DHT22;29774;52.664;5.074;2022-12-18T04:41:21;-3274.40;90.80
44111;DHT22;29774;52.664;5.074;2022-12-18T04:43:47;-3274.50;90.60
44111;DHT22;29774;52.664;5.074;2022-12-18T04:46:12;-3274.40;90.30
44111;DHT22;29774;52.664;5.074;2022-12-18T04:48:38;-3274.20;90.00
44111;DHT22;29774;52.664;5.074;2022-12-18T04:51:04;-3274.20;89.70
44111;DHT22;29774;52.664;5.074;2022-12-18T04:53:30;-3274.10;89.60
44111;DHT22;29774;52.664;5.074;2022-12-18T04:56:08;-3274.10;89.40
44111;DHT22;29774;52.664;5.074;2022-12-18T04:58:35;-3274.10;89.40
44111;DHT22;29774;52.664;5.074;2022-12-18T05:01:01;-3274.00;89.30
44111;DHT22;29774;52.664;5.074;2022-12-18T05:03:26;-3274.00;89.30
44111;DHT22;29774;52.664;5.074;2022-12-18T05:05:52;-3274.00;89.30
44111;DHT22;29774;52.664;5.074;2022-12-18T05:08:18;-3273.80;89.10
44111;DHT22;29774;52.664;5.074;2022-12-18T05:10:43;-3273.90;89.10
44111;DHT22;29774;52.664;5.074;2022-12-18T05:13:09;-3273.90;89.00
44111;DHT22;29774;52.664;5.074;2022-12-18T05:15:35;-3273.90;89.10
44111;DHT22;29774;52.664;5.074;2022-12-18T05:18:01;-3273.90;89.10
44111;DHT22;29774;52.664;5.074;2022-12-18T05:20:27;-3273.90;89.00
44111;DHT22;29774;52.664;5.074;2022-12-18T05:22:53;-3273.80;88.90
44111;DHT22;29774;52.664;5.074;2022-12-18T05:25:20;-3273.80;88.90
44111;DHT22;29774;52.664;5.074;2022-12-18T05:27:45;-3273.80;88.80
44111;DHT22;29774;52.664;5.074;2022-12-18T05:30:12;-3273.70;88.80
44111;DHT22;29774;52.664;5.074;2022-12-18T05:32:37;-3273.70;88.60
44111;DHT22;29774;52.664;5.074;2022-12-18T05:35:04;-3273.60;88.40
44111;DHT22;29774;52.664;5.074;2022-12-18T05:37:31;-3273.60;88.40
44111;DHT22;29774;52.664;5.074;2022-12-18T05:39:56;-3273.60;88.40
44111;DHT22;29774;52.664;5.074;2022-12-18T05:42:22;-3273.60;88.50
44111;DHT22;29774;52.664;5.074;2022-12-18T05:44:47;-3273.60;88.50
44111;DHT22;29774;52.664;5.074;2022-12-18T05:47:13;-3273.70;88.70
44111;DHT22;29774;52.664;5.074;2022-12-18T05:49:39;-3273.70;88.70
44111;DHT22;29774;52.664;5.074;2022-12-18T05:52:04;-3273.70;88.70
44111;DHT22;29774;52.664;5.074;2022-12-18T05:54:30;-3273.60;88.60
44111;DHT22;29774;52.664;5.074;2022-12-18T05:56:56;-3273.60;88.40
44111;DHT22;29774;52.664;5.074;2022-12-18T05:59:22;-3273.60;88.40
44111;DHT22;29774;52.664;5.074;2022-12-18T06:01:48;-3273.70;88.30
44111;DHT22;29774;52.664;5.074;2022-12-18T06:04:13;-3273.70;88.30
44111;DHT22;29774;52.664;5.074;2022-12-18T06:06:39;-3273.60;88.10
44111;DHT22;29774;52.664;5.074;2022-12-18T06:09:05;-3273.70;88.30
44111;DHT22;29774;52.664;5.074;2022-12-18T06:11:34;-3273.70;88.30
44111;DHT22;29774;52.664;5.074;2022-12-18T06:14:00;-3273.70;88.50
44111;DHT22;29774;52.664;5.074;2022-12-18T06:16:27;-3273.70;88.60
44111;DHT22;29774;52.664;5.074;2022-12-18T06:18:55;-3273.70;88.60
44111;DHT22;29774;52.664;5.074;2022-12-18T06:21:21;-3273.70;88.60
44111;DHT22;29774;52.664;5.074;2022-12-18T06:23:46;-3273.70;88.70
44111;DHT22;29774;52.664;5.074;2022-12-18T06:26:13;-3273.70;88.80
44111;DHT22;29774;52.664;5.074;2022-12-18T06:28:39;-3273.70;88.90
44111;DHT22;29774;52.664;5.074;2022-12-18T06:31:05;-3273.70;88.90
44111;DHT22;29774;52.664;5.074;2022-12-18T06:33:31;-3273.70;88.80
44111;DHT22;29774;52.664;5.074;2022-12-18T06:36:02;-3273.70;88.80
44111;DHT22;29774;52.664;5.074;2022-12-18T06:38:28;-3273.80;88.70
44111;DHT22;29774;52.664;5.074;2022-12-18T06:40:54;-3273.70;88.60
44111;DHT22;29774;52.664;5.074;2022-12-18T06:43:20;-3273.70;88.50
44111;DHT22;29774;52.664;5.074;2022-12-18T06:45:45;-3273.70;88.40
44111;DHT22;29774;52.664;5.074;2022-12-18T06:48:14;-3273.70;88.30
44111;DHT22;29774;52.664;5.074;2022-12-18T06:50:42;-3273.70;88.20
44111;DHT22;29774;52.664;5.074;2022-12-18T06:53:08;-3273.70;88.20
44111;DHT22;29774;52.664;5.074;2022-12-18T06:55:33;-3273.70;88.10
44111;DHT22;29774;52.664;5.074;2022-12-18T06:57:59;-3273.70;88.00
44111;DHT22;29774;52.664;5.074;2022-12-18T07:00:24;-3273.60;87.80
44111;DHT22;29774;52.664;5.074;2022-12-18T07:02:50;-3273.60;87.70
44111;DHT22;29774;52.664;5.074;2022-12-18T07:05:16;-3273.60;87.60
44111;DHT22;29774;52.664;5.074;2022-12-18T07:07:41;-3273.60;87.60
44111;DHT22;29774;52.664;5.074;2022-12-18T07:10:07;-3273.60;87.60
44111;DHT22;29774;52.664;5.074;2022-12-18T07:12:33;-3273.60;87.50
44111;DHT22;29774;52.664;5.074;2022-12-18T07:14:59;-3273.60;87.50
44111;DHT22;29774;52.664;5.074;2022-12-18T07:17:24;-3273.60;87.40
44111;DHT22;29774;52.664;5.074;2022-12-18T07:19:50;-3273.60;87.30
44111;DHT22;29774;52.664;5.074;2022-12-18T07:22:15;-3273.60;87.10
44111;DHT22;29774;52.664;5.074;2022-12-18T07:24:41;-3273.60;87.20
44111;DHT22;29774;52.664;5.074;2022-12-18T07:27:06;-3273.60;87.10
44111;DHT22;29774;52.664;5.074;2022-12-18T07:29:32;-3273.60;87.00
44111;DHT22;29774;52.664;5.074;2022-12-18T07:31:58;-3273.60;86.90
44111;DHT22;29774;52.664;5.074;2022-12-18T07:34:23;-3273.60;86.90
44111;DHT22;29774;52.664;5.074;2022-12-18T07:36:49;-3273.60;86.90
44111;DHT22;29774;52.664;5.074;2022-12-18T07:39:14;-3273.60;86.90
44111;DHT22;29774;52.664;5.074;2022-12-18T07:41:40;-3273.60;87.00
44111;DHT22;29774;52.664;5.074;2022-12-18T07:44:29;-3273.60;87.00
44111;DHT22;29774;52.664;5.074;2022-12-18T07:46:54;-3273.70;86.90
44111;DHT22;29774;52.664;5.074;2022-12-18T07:49:20;-3273.60;86.80
44111;DHT22;29774;52.664;5.074;2022-12-18T07:51:46;-3273.60;86.80
44111;DHT22;29774;52.664;5.074;2022-12-18T07:54:14;-3273.60;86.70
44111;DHT22;29774;52.664;5.074;2022-12-18T07:56:40;-3273.60;86.80
44111;DHT22;29774;52.664;5.074;2022-12-18T07:59:05;-3273.70;86.90
44111;DHT22;29774;52.664;5.074;2022-12-18T08:01:31;-3273.60;87.00
44111;DHT22;29774;52.664;5.074;2022-12-18T08:03:58;-3273.70;87.00
44111;DHT22;29774;52.664;5.074;2022-12-18T08:06:24;-3273.70;87.10
44111;DHT22;29774;52.664;5.074;2022-12-18T08:08:54;-3273.70;87.10
44111;DHT22;29774;52.664;5.074;2022-12-18T08:11:21;-3273.70;87.10
44111;DHT22;29774;52.664;5.074;2022-12-18T08:13:46;-3273.70;87.20
44111;DHT22;29774;52.664;5.074;2022-12-18T08:16:13;-3273.80;87.20
44111;DHT22;29774;52.664;5.074;2022-12-18T08:18:39;-3273.80;87.30
44111;DHT22;29774;52.664;5.074;2022-12-18T08:21:25;-3273.80;87.20
44111;DHT22;29774;52.664;5.074;2022-12-18T08:23:52;-3273.80;87.30
44111;DHT22;29774;52.664;5.074;2022-12-18T08:26:18;-3273.90;87.40
44111;DHT22;29774;52.664;5.074;2022-12-18T08:28:44;-3273.90;87.30
44111;DHT22;29774;52.664;5.074;2022-12-18T08:31:10;-3274.00;87.30
44111;DHT22;29774;52.664;5.074;2022-12-18T08:33:37;-3274.00;87.30
44111;DHT22;29774;52.664;5.074;2022-12-18T08:36:04;-3274.10;87.30
44111;DHT22;29774;52.664;5.074;2022-12-18T08:38:31;-3274.00;87.20
44111;DHT22;29774;52.664;5.074;2022-12-18T08:43:26;-3274.10;87.10
44111;DHT22;29774;52.664;5.074;2022-12-18T08:46:11;-3274.20;87.20
44111;DHT22;29774;52.664;5.074;2022-12-18T08:48:37;-3274.20;87.30
44111;DHT22;29774;52.664;5.074;2022-12-18T08:51:02;-3274.30;87.40
44111;DHT22;29774;52.664;5.074;2022-12-18T08:53:28;-3274.30;87.60
44111;DHT22;29774;52.664;5.074;2022-12-18T08:55:55;-3274.40;87.60
44111;DHT22;29774;52.664;5.074;2022-12-18T08:58:21;-3274.50;87.70
44111;DHT22;29774;52.664;5.074;2022-12-18T09:00:47;-3274.50;87.70
44111;DHT22;29774;52.664;5.074;2022-12-18T09:03:17;-3274.60;87.80
44111;DHT22;29774;52.664;5.074;2022-12-18T09:05:43;-3274.60;87.80
44111;DHT22;29774;52.664;5.074;2022-12-18T09:08:09;-3274.70;87.80
44111;DHT22;29774;52.664;5.074;2022-12-18T09:10:41;-3274.80;87.70
44111;DHT22;29774;52.664;5.074;2022-12-18T09:13:08;-3274.80;87.50
44111;DHT22;29774;52.664;5.074;2022-12-18T09:15:34;-3274.80;87.30
44111;DHT22;29774;52.664;5.074;2022-12-18T09:18:05;-3274.80;87.00
44111;DHT22;29774;52.664;5.074;2022-12-18T09:20:30;-3274.90;86.80
44111;DHT22;29774;52.664;5.074;2022-12-18T09:22:56;-3274.90;86.60
44111;DHT22;29774;52.664;5.074;2022-12-18T09:25:21;-3274.90;86.50
44111;DHT22;29774;52.664;5.074;2022-12-18T09:27:47;-3275.00;86.30
44111;DHT22;29774;52.664;5.074;2022-12-18T09:30:13;-3275.00;86.20
44111;DHT22;29774;52.664;5.074;2022-12-18T09:32:39;-3275.00;86.20
44111;DHT22;29774;52.664;5.074;2022-12-18T09:35:05;-3275.00;86.10
44111;DHT22;29774;52.664;5.074;2022-12-18T09:37:30;-3275.00;86.10
44111;DHT22;29774;52.664;5.074;2022-12-18T09:39:56;-3275.10;86.10
44111;DHT22;29774;52.664;5.074;2022-12-18T09:42:22;-3275.10;86.20
44111;DHT22;29774;52.664;5.074;2022-12-18T09:44:51;-3275.10;86.10
44111;DHT22;29774;52.664;5.074;2022-12-18T09:47:30;-3275.10;86.00
44111;DHT22;29774;52.664;5.074;2022-12-18T09:50:02;-3275.20;86.00
44111;DHT22;29774;52.664;5.074;2022-12-18T09:52:35;-3275.20;86.00
44111;DHT22;29774;52.664;5.074;2022-12-18T09:55:44;-3275.20;85.90
44111;DHT22;29774;52.664;5.074;2022-12-18T09:58:26;-3275.30;85.80
44111;DHT22;29774;52.664;5.074;2022-12-18T10:00:53;-3275.30;85.80
44111;DHT22;29774;52.664;5.074;2022-12-18T10:03:20;-3275.30;85.80
44111;DHT22;29774;52.664;5.074;2022-12-18T10:11:03;-3275.50;85.70
44111;DHT22;29774;52.664;5.074;2022-12-18T10:14:06;-3275.50;85.60
44111;DHT22;29774;52.664;5.074;2022-12-18T10:20:02;-3275.50;85.60
44111;DHT22;29774;52.664;5.074;2022-12-18T10:28:21;-3275.50;85.40
44111;DHT22;29774;52.664;5.074;2022-12-18T10:30:47;-3275.60;85.50
44111;DHT22;29774;52.664;5.074;2022-12-18T10:33:22;-3275.60;85.50
44111;DHT22;29774;52.664;5.074;2022-12-18T10:35:50;-3275.60;85.40
44111;DHT22;29774;52.664;5.074;2022-12-18T10:43:38;-3275.70;85.10
44111;DHT22;29774;52.664;5.074;2022-12-18T10:48:41;-3275.70;85.00
44111;DHT22;29774;52.664;5.074;2022-12-18T10:51:30;-3275.80;85.00
44111;DHT22;29774;52.664;5.074;2022-12-18T10:54:06;-3275.80;84.90
44111;DHT22;29774;52.664;5.074;2022-12-18T10:56:38;-3275.80;85.10
44111;DHT22;29774;52.664;5.074;2022-12-18T10:59:10;-3275.80;85.10
44111;DHT22;29774;52.664;5.074;2022-12-18T11:04:17;-3275.80;85.00
44111;DHT22;29774;52.664;5.074;2022-12-18T11:07:03;-3275.90;84.80
44111;DHT22;29774;52.664;5.074;2022-12-18T11:09:31;-3275.90;84.60
44111;DHT22;29774;52.664;5.074;2022-12-18T11:11:59;-3275.90;84.60
44111;DHT22;29774;52.664;5.074;2022-12-18T11:14:42;-3275.90;84.70
44111;DHT22;29774;52.664;5.074;2022-12-18T11:17:27;-3276.00;84.80
44111;DHT22;29774;52.664;5.074;2022-12-18T11:19:59;-3276.00;85.00
44111;DHT22;29774;52.664;5.074;2022-12-18T11:22:31;-3276.00;84.80
44111;DHT22;29774;52.664;5.074;2022-12-18T11:27:31;-3276.10;84.50
44111;DHT22;29774;52.664;5.074;2022-12-18T11:32:47;-3276.10;84.80
44111;DHT22;29774;52.664;5.074;2022-12-18T11:38:18;-3276.10;85.00
44111;DHT22;29774;52.664;5.074;2022-12-18T11:40:51;-3276.20;84.60
44111;DHT22;29774;52.664;5.074;2022-12-18T11:43:44;-3276.20;84.40
44111;DHT22;29774;52.664;5.074;2022-12-18T11:46:30;-3276.20;84.30
44111;DHT22;29774;52.664;5.074;2022-12-18T11:49:08;-3276.20;84.30
44111;DHT22;29774;52.664;5.074;2022-12-18T11:51:59;-3276.20;84.30
44111;DHT22;29774;52.664;5.074;2022-12-18T11:54:27;-3276.20;84.40
44111;DHT22;29774;52.664;5.074;2022-12-18T11:57:02;-3276.30;84.70
44111;DHT22;29774;52.664;5.074;2022-12-18T11:59:50;-3276.30;84.80
44111;DHT22;29774;52.664;5.074;2022-12-18T12:07:52;-3276.30;84.30
44111;DHT22;29774;52.664;5.074;2022-12-18T12:13:26;-3276.40;83.80
44111;DHT22;29774;52.664;5.074;2022-12-18T12:19:06;-3276.50;83.70
44111;DHT22;29774;52.664;5.074;2022-12-18T12:21:40;-3276.50;83.70
44111;DHT22;29774;52.664;5.074;2022-12-18T12:29:47;-3276.50;84.60
44111;DHT22;29774;52.664;5.074;2022-12-18T12:32:42;-3276.50;84.50
44111;DHT22;29774;52.664;5.074;2022-12-18T12:40:51;-3276.40;84.20
44111;DHT22;29774;52.664;5.074;2022-12-18T12:45:57;-3276.50;84.10
44111;DHT22;29774;52.664;5.074;2022-12-18T12:48:49;-3276.50;84.30
44111;DHT22;29774;52.664;5.074;2022-12-18T12:51:22;-3276.60;84.20
44111;DHT22;29774;52.664;5.074;2022-12-18T12:53:49;-3276.60;84.40
44111;DHT22;29774;52.664;5.074;2022-12-18T12:56:17;-3276.60;84.30
44111;DHT22;29774;52.664;5.074;2022-12-18T13:01:46;-3276.50;83.80
44111;DHT22;29774;52.664;5.074;2022-12-18T13:06:59;-3276.60;83.70
44111;DHT22;29774;52.664;5.074;2022-12-18T13:09:33;-3276.60;83.60
44111;DHT22;29774;52.664;5.074;2022-12-18T13:12:10;-3276.60;83.50
44111;DHT22;29774;52.664;5.074;2022-12-18T13:15:34;-3276.60;83.30
44111;DHT22;29774;52.664;5.074;2022-12-18T13:20:37;-3276.60;83.10
44111;DHT22;29774;52.664;5.074;2022-12-18T13:26:28;-3276.60;83.10
44111;DHT22;29774;52.664;5.074;2022-12-18T13:34:29;-3276.60;82.80
44111;DHT22;29774;52.664;5.074;2022-12-18T13:39:58;-3276.60;82.80
44111;DHT22;29774;52.664;5.074;2022-12-18T13:48:35;-3276.60;82.60
44111;DHT22;29774;52.664;5.074;2022-12-18T13:51:07;-3276.60;82.80
44111;DHT22;29774;52.664;5.074;2022-12-18T13:53:42;-3276.60;83.20
44111;DHT22;29774;52.664;5.074;2022-12-18T13:56:09;-3276.60;83.20
44111;DHT22;29774;52.664;5.074;2022-12-18T13:58:40;-3276.60;83.30
44111;DHT22;29774;52.664;5.074;2022-12-18T14:01:24;-3276.50;83.50
44111;DHT22;29774;52.664;5.074;2022-12-18T14:03:50;-3276.60;83.70
44111;DHT22;29774;52.664;5.074;2022-12-18T14:06:16;-3276.60;83.70
44111;DHT22;29774;52.664;5.074;2022-12-18T14:08:42;-3276.60;83.70
44111;DHT22;29774;52.664;5.074;2022-12-18T14:11:20;-3276.60;83.70
44111;DHT22;29774;52.664;5.074;2022-12-18T14:13:47;-3276.50;83.50
44111;DHT22;29774;52.664;5.074;2022-12-18T14:16:15;-3276.60;83.70
44111;DHT22;29774;52.664;5.074;2022-12-18T14:18:45;-3276.60;83.40
44111;DHT22;29774;52.664;5.074;2022-12-18T14:21:28;-3276.50;83.50
44111;DHT22;29774;52.664;5.074;2022-12-18T14:24:11;-3276.60;83.30
44111;DHT22;29774;52.664;5.074;2022-12-18T14:26:37;-3276.50;83.30
44111;DHT22;29774;52.664;5.074;2022-12-18T14:29:25;-3276.50;83.20
44111;DHT22;29774;52.664;5.074;2022-12-18T14:32:16;-3276.50;83.20
44111;DHT22;29774;52.664;5.074;2022-12-18T14:37:15;-3276.50;83.40
44111;DHT22;29774;52.664;5.074;2022-12-18T14:39:58;-3276.50;83.40
44111;DHT22;29774;52.664;5.074;2022-12-18T14:42:28;-3276.50;83.30
44111;DHT22;29774;52.664;5.074;2022-12-18T14:47:58;-3276.60;83.10
44111;DHT22;29774;52.664;5.074;2022-12-18T14:50:24;-3276.60;83.10
44111;DHT22;29774;52.664;5.074;2022-12-18T14:52:50;-3276.60;83.10
44111;DHT22;29774;52.664;5.074;2022-12-18T14:55:20;-3276.60;83.20
44111;DHT22;29774;52.664;5.074;2022-12-18T14:57:50;-3276.60;83.00
44111;DHT22;29774;52.664;5.074;2022-12-18T15:00:18;-3276.70;82.90
44111;DHT22;29774;52.664;5.074;2022-12-18T15:02:53;-3276.70;82.70
44111;DHT22;29774;52.664;5.074;2022-12-18T15:05:24;-3276.70;82.70
44111;DHT22;29774;52.664;5.074;2022-12-18T15:07:52;-3276.70;82.70
44111;DHT22;29774;52.664;5.074;2022-12-18T15:10:22;0.00;82.80
44111;DHT22;29774;52.664;5.074;2022-12-18T15:13:07;0.00;82.70
44111;DHT22;29774;52.664;5.074;2022-12-18T15:18:32;-3276.70;82.60
44111;DHT22;29774;52.664;5.074;2022-12-18T15:21:03;-3276.70;82.60
44111;DHT22;29774;52.664;5.074;2022-12-18T15:23:49;-3276.70;82.70
44111;DHT22;29774;52.664;5.074;2022-12-18T15:26:18;-3276.70;82.60
44111;DHT22;29774;52.664;5.074;2022-12-18T15:28:53;-3276.70;82.60
44111;DHT22;29774;52.664;5.074;2022-12-18T15:36:19;0.00;82.90
44111;DHT22;29774;52.664;5.074;2022-12-18T15:38:54;0.00;83.10
44111;DHT22;29774;52.664;5.074;2022-12-18T15:41:21;0.00;83.10
44111;DHT22;29774;52.664;5.074;2022-12-18T15:43:49;0.00;83.20
44111;DHT22;29774;52.664;5.074;2022-12-18T15:46:20;0.00;83.20
44111;DHT22;29774;52.664;5.074;2022-12-18T15:48:56;0.00;83.00
44111;DHT22;29774;52.664;5.074;2022-12-18T15:51:29;0.00;82.90
44111;DHT22;29774;52.664;5.074;2022-12-18T15:53:59;0.00;82.80
44111;DHT22;29774;52.664;5.074;2022-12-18T15:56:26;0.00;82.60
44111;DHT22;29774;52.664;5.074;2022-12-18T15:59:16;0.00;82.70
44111;DHT22;29774;52.664;5.074;2022-12-18T16:01:44;0.00;83.00
44111;DHT22;29774;52.664;5.074;2022-12-18T16:04:12;0.00;82.90
44111;DHT22;29774;52.664;5.074;2022-12-18T16:06:38;0.00;82.70
44111;DHT22;29774;52.664;5.074;2022-12-18T16:09:05;0.00;82.50
44111;DHT22;29774;52.664;5.074;2022-12-18T16:11:32;0.10;82.50
44111;DHT22;29774;52.664;5.074;2022-12-18T16:14:21;0.20;82.20
44111;DHT22;29774;52.664;5.074;2022-12-18T16:16:53;0.30;81.60
44111;DHT22;29774;52.664;5.074;2022-12-18T16:19:19;0.30;81.50
44111;DHT22;29774;52.664;5.074;2022-12-18T16:21:46;0.20;81.60
44111;DHT22;29774;52.664;5.074;2022-12-18T16:24:16;0.20;81.70
44111;DHT22;29774;52.664;5.074;2022-12-18T16:26:43;0.20;81.50
44111;DHT22;29774;52.664;5.074;2022-12-18T16:29:09;0.10;81.50
44111;DHT22;29774;52.664;5.074;2022-12-18T16:31:35;0.00;81.40
44111;DHT22;29774;52.664;5.074;2022-12-18T16:34:24;0.10;81.40
44111;DHT22;29774;52.664;5.074;2022-12-18T16:36:57;0.00;81.60
44111;DHT22;29774;52.664;5.074;2022-12-18T16:39:24;0.10;81.50
44111;DHT22;29774;52.664;5.074;2022-12-18T16:41:49;0.10;81.60
44111;DHT22;29774;52.664;5.074;2022-12-18T16:44:15;0.00;81.80
44111;DHT22;29774;52.664;5.074;2022-12-18T16:46:41;0.00;81.80
44111;DHT22;29774;52.664;5.074;2022-12-18T16:49:15;0.10;81.60
44111;DHT22;29774;52.664;5.074;2022-12-18T16:51:41;0.10;81.60
44111;DHT22;29774;52.664;5.074;2022-12-18T16:54:07;0.10;81.10
44111;DHT22;29774;52.664;5.074;2022-12-18T16:56:33;0.10;80.90
44111;DHT22;29774;52.664;5.074;2022-12-18T16:59:00;0.10;80.70
44111;DHT22;29774;52.664;5.074;2022-12-18T17:01:28;0.20;80.60
44111;DHT22;29774;52.664;5.074;2022-12-18T17:03:59;0.10;80.50
44111;DHT22;29774;52.664;5.074;2022-12-18T17:06:28;0.10;80.60
44111;DHT22;29774;52.664;5.074;2022-12-18T17:09:14;0.10;80.60
44111;DHT22;29774;52.664;5.074;2022-12-18T17:11:44;0.10;80.30
44111;DHT22;29774;52.664;5.074;2022-12-18T17:14:16;0.10;80.70
44111;DHT22;29774;52.664;5.074;2022-12-18T17:16:42;0.10;81.00